Time;durP1;ratioP1;P1;durP2;ratioP2;P2;SDS_P1;SDS_P2;PMS_P1;PMS_P2;Temp;Humidity;BMP_temperature;BMP_pressure;BME280_temperature;BME280_humidity;BME280_pressure;Samples;Min_cycle;Max_cycle;Signal;HPM_P1;HPM_P2
2021/09/16 00:01:29;;;;;;;;;47.67;41.33;26.70;33.80;;;;;;5117826;28;8774;-68
2021/09/16 00:03:55;;;;;;;;;44.33;38.67;26.70;33.70;;;;;;5118017;28;9422;-68
2021/09/16 00:06:21;;;;;;;;;50.00;42.67;26.70;33.80;;;;;;5117437;28;8851;-68
2021/09/16 00:08:47;;;;;;;;;50.00;42.67;26.80;33.70;;;;;;5117295;28;8931;-67
2021/09/16 00:11:12;;;;;;;;;50.00;43.00;26.70;33.70;;;;;;5117382;28;8834;-68
2021/09/16 00:13:38;;;;;;;;;50.67;43.67;26.70;33.90;;;;;;5117276;28;8849;-64
2021/09/16 00:16:05;;;;;;;;;53.75;45.50;26.70;34.00;;;;;;5117237;28;8876;-64
2021/09/16 00:18:31;;;;;;;;;57.00;47.75;26.70;34.10;;;;;;5117591;28;8766;-64
2021/09/16 00:20:57;;;;;;;;;54.75;45.75;26.60;34.10;;;;;;5117211;28;8782;-65
2021/09/16 00:23:23;;;;;;;;;55.25;47.00;26.60;34.30;;;;;;5117162;28;8830;-65
2021/09/16 00:25:48;;;;;;;;;58.00;48.50;26.50;34.40;;;;;;5116928;28;8753;-66
2021/09/16 00:28:14;;;;;;;;;55.00;47.00;26.50;34.40;;;;;;5116774;28;8820;-65
2021/09/16 00:30:40;;;;;;;;;54.25;46.00;26.50;34.40;;;;;;5116761;28;8816;-65
2021/09/16 00:33:06;;;;;;;;;56.75;48.00;26.50;34.50;;;;;;5117124;28;8757;-65
2021/09/16 00:35:31;;;;;;;;;53.75;45.50;26.60;34.50;;;;;;5117156;28;8766;-65
2021/09/16 00:37:58;;;;;;;;;57.50;48.25;26.60;34.50;;;;;;5117100;28;8753;-65
2021/09/16 00:40:24;;;;;;;;;53.50;45.50;26.50;34.50;;;;;;5117029;28;8784;-66
2021/09/16 00:42:50;;;;;;;;;53.67;45.33;26.60;34.60;;;;;;5116705;28;8754;-66
2021/09/16 00:45:16;;;;;;;;;56.50;47.25;26.50;34.70;;;;;;5116806;28;8761;-66
2021/09/16 00:47:46;;;;;;;;;54.67;46.00;26.60;34.70;;;;;;5116550;28;8781;-65
2021/09/16 00:50:14;;;;;;;;;51.00;44.33;26.60;34.60;;;;;;5116873;28;8769;-65
2021/09/16 00:52:41;;;;;;;;;52.00;43.67;26.60;34.40;;;;;;5116578;28;8781;-65
2021/09/16 00:55:09;;;;;;;;;57.50;49.00;26.60;34.50;;;;;;5098422;28;9446;-66
2021/09/16 00:57:36;;;;;;;;;56.75;48.25;26.60;34.50;;;;;;5116752;28;8789;-65
2021/09/16 01:00:07;;;;;;;;;61.75;51.50;26.60;34.40;;;;;;5116345;28;8758;-65
2021/09/16 01:02:33;;;;;;;;;54.00;46.00;26.60;34.70;;;;;;5116658;28;8776;-64
2021/09/16 01:04:59;;;;;;;;;52.25;44.75;26.70;34.80;;;;;;5116392;28;8742;-65
2021/09/16 01:07:25;;;;;;;;;54.50;46.25;26.80;34.80;;;;;;5116473;28;8933;-65
2021/09/16 01:09:51;;;;;;;;;50.75;42.75;26.80;34.80;;;;;;5116236;28;9431;-65
2021/09/16 01:12:17;;;;;;;;;54.00;46.00;26.90;34.90;;;;;;5116340;28;9576;-65
2021/09/16 01:14:45;;;;;;;;;53.50;45.25;26.80;34.80;;;;;;5116141;28;8761;-65
2021/09/16 01:17:11;;;;;;;;;51.00;44.00;26.80;34.80;;;;;;5116010;28;8778;-65
2021/09/16 01:19:37;;;;;;;;;56.75;48.00;26.80;34.60;;;;;;5115967;28;8797;-66
2021/09/16 01:22:04;;;;;;;;;57.00;48.00;26.90;34.80;;;;;;5116207;28;8770;-66
2021/09/16 01:24:30;;;;;;;;;56.25;47.25;27.00;34.70;;;;;;5115900;28;8796;-66
2021/09/16 01:26:56;;;;;;;;;58.00;48.75;26.90;34.70;;;;;;5115969;28;8793;-65
2021/09/16 01:29:22;;;;;;;;;55.75;46.75;26.90;35.00;;;;;;5115532;28;8805;-66
2021/09/16 01:31:50;;;;;;;;;54.50;46.25;26.80;35.10;;;;;;5097823;28;8765;-65
2021/09/16 01:34:18;;;;;;;;;48.00;41.50;26.80;35.00;;;;;;5115700;28;8770;-66
2021/09/16 01:36:45;;;;;;;;;54.00;46.00;26.80;35.20;;;;;;5115703;28;8834;-65
2021/09/16 01:39:16;;;;;;;;;56.50;47.50;26.80;35.50;;;;;;5115176;28;8761;-66
2021/09/16 01:41:42;;;;;;;;;51.50;44.50;26.80;35.60;;;;;;5124604;27;8779;-66
2021/09/16 01:44:08;;;;;;;;;53.50;45.50;26.80;35.20;;;;;;5135777;27;9416;-66
2021/09/16 01:46:34;;;;;;;;;53.50;45.75;26.70;35.40;;;;;;5136059;27;8744;-65
2021/09/16 01:49:03;;;;;;;;;52.25;44.75;26.50;35.50;;;;;;5135922;27;8922;-66
2021/09/16 01:51:29;;;;;;;;;60.00;50.25;26.50;35.60;;;;;;5136009;27;8849;-66
2021/09/16 01:53:56;;;;;;;;;53.00;45.25;26.60;35.70;;;;;;5118075;27;8755;-65
2021/09/16 01:56:21;;;;;;;;;57.25;48.00;26.60;35.70;;;;;;5135801;27;8794;-65
2021/09/16 01:58:47;;;;;;;;;57.00;47.50;26.60;35.60;;;;;;5136140;27;8756;-65
2021/09/16 02:01:13;;;;;;;;;57.00;47.50;26.50;35.70;;;;;;5135871;27;8840;-65
2021/09/16 02:03:39;;;;;;;;;54.75;45.75;26.50;35.80;;;;;;5135738;27;8779;-66
2021/09/16 02:06:05;;;;;;;;;56.50;47.25;26.60;35.90;;;;;;5135861;27;8744;-66
2021/09/16 02:08:30;;;;;;;;;57.25;48.25;26.50;35.90;;;;;;5135757;27;8814;-65
2021/09/16 02:10:56;;;;;;;;;61.50;50.75;26.50;36.00;;;;;;5135860;27;8767;-65
2021/09/16 02:13:22;;;;;;;;;65.00;53.50;26.50;36.00;;;;;;5135932;27;8782;-65
2021/09/16 02:15:48;;;;;;;;;66.75;54.00;26.50;35.90;;;;;;5135930;27;9631;-64
2021/09/16 02:18:14;;;;;;;;;63.00;52.00;26.50;35.90;;;;;;5135589;27;8796;-65
2021/09/16 02:20:40;;;;;;;;;58.00;49.00;26.50;36.20;;;;;;5135703;27;8824;-65
2021/09/16 02:23:06;;;;;;;;;58.00;48.50;26.50;36.70;;;;;;5135798;27;9478;-65
2021/09/16 02:25:31;;;;;;;;;62.25;51.25;26.50;36.70;;;;;;5135532;27;8747;-66
2021/09/16 02:27:57;;;;;;;;;56.75;47.50;26.50;36.80;;;;;;5135251;27;8850;-65
2021/09/16 02:30:23;;;;;;;;;56.75;47.75;26.50;37.00;;;;;;5135601;27;8807;-66
2021/09/16 02:32:49;;;;;;;;;57.50;48.00;26.40;37.10;;;;;;5135664;27;8782;-66
2021/09/16 02:35:15;;;;;;;;;56.50;47.50;26.30;37.10;;;;;;5135694;27;8759;-66
2021/09/16 02:37:41;;;;;;;;;56.00;47.50;26.10;37.30;;;;;;5135397;27;8859;-65
2021/09/16 02:40:09;;;;;;;;;55.50;47.00;26.20;37.40;;;;;;5135304;27;8814;-65
2021/09/16 02:42:34;;;;;;;;;53.75;45.50;26.10;37.50;;;;;;5135327;27;8755;-66
2021/09/16 02:45:00;;;;;;;;;59.00;49.50;26.20;37.50;;;;;;5135561;27;8765;-65
2021/09/16 02:47:26;;;;;;;;;58.00;48.67;26.20;37.40;;;;;;5135451;27;8770;-65
2021/09/16 02:49:52;;;;;;;;;56.00;47.00;26.30;37.10;;;;;;5135365;27;8755;-66
2021/09/16 02:52:18;;;;;;;;;55.50;47.00;26.30;36.90;;;;;;5139485;27;8752;-66
2021/09/16 02:54:43;;;;;;;;;60.00;49.50;26.30;37.10;;;;;;5139475;27;8748;-65
2021/09/16 02:57:09;;;;;;;;;61.50;51.50;26.20;37.00;;;;;;5139338;27;8787;-65
2021/09/16 02:59:35;;;;;;;;;56.50;47.50;26.30;37.20;;;;;;5139540;27;8758;-65
2021/09/16 03:02:01;;;;;;;;;54.75;45.75;26.30;37.10;;;;;;5139464;27;8755;-65
2021/09/16 03:04:27;;;;;;;;;56.75;47.25;26.20;37.00;;;;;;5139494;27;8771;-65
2021/09/16 03:06:52;;;;;;;;;55.00;46.75;26.20;37.10;;;;;;5139178;27;8790;-66
2021/09/16 03:09:18;;;;;;;;;53.75;45.50;26.20;37.00;;;;;;5139051;27;8807;-66
2021/09/16 03:11:44;;;;;;;;;56.75;47.50;26.30;37.20;;;;;;5139059;27;8763;-65
2021/09/16 03:14:10;;;;;;;;;54.50;46.25;26.30;37.20;;;;;;5138997;27;8779;-66
2021/09/16 03:16:35;;;;;;;;;57.25;47.25;26.20;36.90;;;;;;5139010;27;8869;-65
2021/09/16 03:19:01;;;;;;;;;60.25;50.00;26.20;37.30;;;;;;5138962;27;8776;-65
2021/09/16 03:21:27;;;;;;;;;59.25;49.50;26.10;37.30;;;;;;5139188;27;8763;-66
2021/09/16 03:23:53;;;;;;;;;54.00;46.00;25.90;37.40;;;;;;5120689;27;8768;-66
2021/09/16 03:26:19;;;;;;;;;58.00;48.50;25.90;37.30;;;;;;5138803;27;8795;-66
2021/09/16 03:28:44;;;;;;;;;55.50;46.75;26.00;37.50;;;;;;5138979;27;8803;-65
2021/09/16 03:31:10;;;;;;;;;51.25;44.25;26.00;37.10;;;;;;5138527;27;8806;-66
2021/09/16 03:33:36;;;;;;;;;57.00;48.00;26.00;37.10;;;;;;5139194;27;8767;-65
2021/09/16 03:36:03;;;;;;;;;52.50;45.00;26.00;37.20;;;;;;5138859;27;8751;-65
2021/09/16 03:38:29;;;;;;;;;57.50;47.75;26.10;37.30;;;;;;5138504;27;8755;-64
2021/09/16 03:40:55;;;;;;;;;54.75;46.50;26.00;37.30;;;;;;5138850;27;8794;-66
2021/09/16 03:43:21;;;;;;;;;55.25;46.75;26.00;36.90;;;;;;5120396;27;8760;-65
2021/09/16 03:45:46;;;;;;;;;53.75;45.75;26.00;37.00;;;;;;5138471;27;8767;-65
2021/09/16 03:48:12;;;;;;;;;53.25;45.25;26.10;36.90;;;;;;5138301;27;8800;-66
2021/09/16 03:50:38;;;;;;;;;55.00;47.00;26.10;36.90;;;;;;5138682;27;8744;-66
2021/09/16 03:53:04;;;;;;;;;52.75;45.25;26.10;36.90;;;;;;5138586;27;8767;-65
2021/09/16 03:55:30;;;;;;;;;52.67;45.00;26.00;36.80;;;;;;5138294;27;8751;-65
2021/09/16 03:57:56;;;;;;;;;51.67;44.33;26.00;37.00;;;;;;5138815;27;8995;-66
2021/09/16 04:00:21;;;;;;;;;53.50;45.50;26.10;37.10;;;;;;5138438;27;8743;-65
2021/09/16 04:02:47;;;;;;;;;54.25;46.00;26.10;36.90;;;;;;5137197;27;8744;-65
2021/09/16 04:05:13;;;;;;;;;56.67;48.00;26.20;37.20;;;;;;5138296;27;8783;-65
2021/09/16 04:07:40;;;;;;;;;50.67;42.67;26.20;37.20;;;;;;5137930;27;8774;-66
2021/09/16 04:10:07;;;;;;;;;54.75;46.50;26.30;38.70;;;;;;5138171;27;8766;-66
2021/09/16 04:12:34;;;;;;;;;54.75;46.50;26.20;39.40;;;;;;5137895;27;8783;-65
2021/09/16 04:15:00;;;;;;;;;57.75;48.75;26.30;40.30;;;;;;5138413;27;8755;-65
2021/09/16 04:17:26;;;;;;;;;51.50;44.25;26.20;41.10;;;;;;5137780;27;9505;-65
2021/09/16 04:19:51;;;;;;;;;53.25;45.25;26.30;40.80;;;;;;5138018;27;8747;-65
2021/09/16 04:22:17;;;;;;;;;55.75;47.25;26.30;43.00;;;;;;5137698;27;9401;-66
2021/09/16 04:24:44;;;;;;;;;52.33;44.67;26.30;42.00;;;;;;5135592;27;8779;-65
2021/09/16 04:27:13;;;;;;;;;55.50;47.00;26.20;40.70;;;;;;5119288;27;8801;-66
2021/09/16 04:29:39;;;;;;;;;50.67;42.33;26.30;41.40;;;;;;5124787;27;8819;-65
2021/09/16 04:32:05;;;;;;;;;47.00;40.33;26.30;41.10;;;;;;5137829;27;8735;-65
2021/09/16 04:34:32;;;;;;;;;49.25;42.50;26.30;40.20;;;;;;5137728;27;8748;-65
2021/09/16 04:36:57;;;;;;;;;51.67;44.67;26.30;40.60;;;;;;5137412;27;8751;-64
2021/09/16 04:39:23;;;;;;;;;51.67;44.00;26.20;40.60;;;;;;5129479;27;8790;-67
2021/09/16 04:41:49;;;;;;;;;49.33;42.67;26.30;41.80;;;;;;5128796;27;8775;-64
2021/09/16 04:44:15;;;;;;;;;49.00;42.00;26.30;41.20;;;;;;5129218;27;8776;-65
2021/09/16 04:46:41;;;;;;;;;48.33;42.00;26.40;42.00;;;;;;5122579;27;8772;-68
2021/09/16 04:49:07;;;;;;;;;45.67;40.00;26.40;42.40;;;;;;5124067;27;8813;-68
2021/09/16 04:51:33;;;;;;;;;50.00;43.00;26.30;41.50;;;;;;5128137;27;8866;-68
2021/09/16 04:53:58;;;;;;;;;57.50;47.75;26.40;41.90;;;;;;5116856;27;11023;-69
2021/09/16 04:56:24;;;;;;;;;49.00;41.50;26.40;41.90;;;;;;5127020;27;8807;-66
2021/09/16 04:58:50;;;;;;;;;51.25;44.00;26.40;40.90;;;;;;5126709;27;8896;-66
2021/09/16 05:01:17;;;;;;;;;55.00;46.00;26.00;40.80;;;;;;5117608;27;8796;-66
2021/09/16 05:03:43;;;;;;;;;56.50;47.50;26.00;40.60;;;;;;5123271;27;8774;-66
2021/09/16 05:06:09;;;;;;;;;53.25;45.50;26.10;40.90;;;;;;5134847;27;8792;-65
2021/09/16 05:08:35;;;;;;;;;53.50;45.50;26.20;40.50;;;;;;5130200;27;8821;-65
2021/09/16 05:11:01;;;;;;;;;52.33;44.67;26.20;40.10;;;;;;5129768;27;9401;-65
2021/09/16 05:13:26;;;;;;;;;52.50;44.25;26.30;40.40;;;;;;5125554;27;8819;-66
2021/09/16 05:15:52;;;;;;;;;53.75;45.50;26.30;40.20;;;;;;5107012;28;8790;-66
2021/09/16 05:18:18;;;;;;;;;56.75;48.50;26.50;41.00;;;;;;5125768;27;8894;-64
2021/09/16 05:20:44;;;;;;;;;52.00;44.00;26.40;41.50;;;;;;5123982;27;8770;-65
2021/09/16 05:23:09;;;;;;;;;53.25;45.25;26.50;42.20;;;;;;5123135;27;8770;-65
2021/09/16 05:25:35;;;;;;;;;50.50;43.50;26.50;42.20;;;;;;5125532;27;8767;-64
2021/09/16 05:28:01;;;;;;;;;53.67;45.67;26.60;42.10;;;;;;5128920;27;8899;-66
2021/09/16 05:30:27;;;;;;;;;53.33;44.67;26.60;40.50;;;;;;5125361;27;8934;-65
2021/09/16 05:32:53;;;;;;;;;52.33;45.00;26.70;40.60;;;;;;5120855;27;8873;-65
2021/09/16 05:35:19;;;;;;;;;51.00;44.00;26.70;40.30;;;;;;5123020;27;8828;-66
2021/09/16 05:37:45;;;;;;;;;53.33;45.67;26.70;41.30;;;;;;5123459;27;8773;-65
2021/09/16 05:40:11;;;;;;;;;52.50;44.00;26.80;41.20;;;;;;5129209;27;8767;-66
2021/09/16 05:42:37;;;;;;;;;54.00;45.75;26.90;40.70;;;;;;5125061;27;8816;-66
2021/09/16 05:45:05;;;;;;;;;56.50;47.25;26.90;40.40;;;;;;5121949;27;8770;-66
2021/09/16 05:47:31;;;;;;;;;56.25;46.75;26.80;41.50;;;;;;5126397;27;8744;-65
2021/09/16 05:49:57;;;;;;;;;55.25;46.25;26.80;41.50;;;;;;5135968;27;8771;-67
2021/09/16 05:52:23;;;;;;;;;55.00;46.75;26.80;41.60;;;;;;5117181;27;8767;-66
2021/09/16 05:54:49;;;;;;;;;61.50;51.25;26.70;42.00;;;;;;5117333;27;8779;-65
2021/09/16 05:57:15;;;;;;;;;65.00;53.00;26.70;42.30;;;;;;5120398;27;9006;-66
2021/09/16 05:59:40;;;;;;;;;58.50;48.75;26.80;42.20;;;;;;5135852;27;8751;-67
2021/09/16 06:02:06;;;;;;;;;60.75;49.50;26.80;41.90;;;;;;5136116;27;8892;-67
2021/09/16 06:04:32;;;;;;;;;60.75;50.25;27.00;42.00;;;;;;5139931;27;8847;-66
2021/09/16 06:07:03;;;;;;;;;64.00;53.00;27.00;41.80;;;;;;5120049;27;8762;-66
2021/09/16 06:09:30;;;;;;;;;64.00;52.75;27.10;41.50;;;;;;5125513;27;9594;-66
2021/09/16 06:11:56;;;;;;;;;63.50;52.75;27.10;41.90;;;;;;5114753;28;8765;-66
2021/09/16 06:14:22;;;;;;;;;69.25;58.00;27.20;41.70;;;;;;5114899;28;8808;-67
2021/09/16 06:16:48;;;;;;;;;68.75;57.25;27.20;40.80;;;;;;5133311;27;9450;-66
2021/09/16 06:19:13;;;;;;;;;62.75;52.25;27.20;40.80;;;;;;5131546;27;9413;-67
2021/09/16 06:21:39;;;;;;;;;66.25;54.25;27.20;40.70;;;;;;5129974;27;8775;-67
2021/09/16 06:24:05;;;;;;;;;64.50;53.50;27.30;40.40;;;;;;5135369;27;9756;-66
2021/09/16 06:26:31;;;;;;;;;62.00;51.00;27.40;40.10;;;;;;5134620;27;8815;-66
2021/09/16 06:28:57;;;;;;;;;59.25;49.25;27.30;39.80;;;;;;5138445;27;8816;-66
2021/09/16 06:31:23;;;;;;;;;57.25;48.25;27.30;39.20;;;;;;5155686;27;8782;-67
2021/09/16 06:33:49;;;;;;;;;51.50;43.50;27.30;39.30;;;;;;5155959;27;8866;-66
2021/09/16 06:36:14;;;;;;;;;54.75;46.75;27.30;38.90;;;;;;5152935;27;8745;-66
2021/09/16 06:38:40;;;;;;;;;57.50;48.50;27.30;38.90;;;;;;5129355;27;8773;-68
2021/09/16 06:41:06;;;;;;;;;55.25;45.25;27.40;38.70;;;;;;5155622;27;8777;-67
2021/09/16 06:43:32;;;;;;;;;63.25;52.50;27.60;38.60;;;;;;5155918;27;8848;-67
2021/09/16 06:45:57;;;;;;;;;66.25;55.25;27.60;38.60;;;;;;5155924;27;8778;-67
2021/09/16 06:48:23;;;;;;;;;88.25;87.75;27.60;38.00;;;;;;5130184;27;8801;-67
2021/09/16 06:50:49;;;;;;;;;87.00;86.50;27.60;38.00;;;;;;5125939;28;8827;-67
2021/09/16 06:53:15;;;;;;;;;74.75;67.50;27.80;38.00;;;;;;5129670;27;8782;-67
2021/09/16 06:55:40;;;;;;;;;73.50;66.25;27.90;37.70;;;;;;5134751;27;8759;-66
2021/09/16 06:58:06;;;;;;;;;68.50;56.50;27.90;37.60;;;;;;5115723;27;8830;-66
2021/09/16 07:00:32;;;;;;;;;71.75;62.50;28.00;37.50;;;;;;5134708;27;8772;-67
2021/09/16 07:02:57;;;;;;;;;71.00;60.50;28.10;37.70;;;;;;5126209;27;8774;-66
2021/09/16 07:05:23;;;;;;;;;69.00;57.50;28.20;37.30;;;;;;5120820;27;8844;-66
2021/09/16 07:07:49;;;;;;;;;72.75;64.00;28.30;37.30;;;;;;5124015;27;8771;-65
2021/09/16 07:10:15;;;;;;;;;59.25;50.25;28.40;37.30;;;;;;5119141;28;8777;-67
2021/09/16 07:12:41;;;;;;;;;63.50;52.50;28.50;36.90;;;;;;5121799;27;9503;-66
2021/09/16 07:15:07;;;;;;;;;57.75;48.00;28.70;37.10;;;;;;5127931;28;8790;-64
2021/09/16 07:17:33;;;;;;;;;62.50;51.00;28.80;37.40;;;;;;5122694;27;8766;-66
2021/09/16 07:19:59;;;;;;;;;58.75;49.25;28.90;37.00;;;;;;5124606;27;8808;-66
2021/09/16 07:22:25;;;;;;;;;59.00;49.25;28.90;36.50;;;;;;5120092;28;8765;-65
2021/09/16 07:24:50;;;;;;;;;61.50;50.75;29.00;36.50;;;;;;5114718;27;8770;-67
2021/09/16 07:27:16;;;;;;;;;59.00;48.50;29.00;36.60;;;;;;5129894;27;8823;-68
2021/09/16 07:29:42;;;;;;;;;60.00;49.75;29.00;36.10;;;;;;5125267;27;8817;-62
2021/09/16 07:32:08;;;;;;;;;55.67;46.33;29.10;36.20;;;;;;5130766;27;8782;-63
2021/09/16 07:34:34;;;;;;;;;55.50;46.50;29.20;36.00;;;;;;5134720;27;8774;-63
2021/09/16 07:37:00;;;;;;;;;46.00;39.67;29.20;37.20;;;;;;5135236;27;8790;-63
2021/09/16 07:39:26;;;;;;;;;49.33;42.33;29.30;35.50;;;;;;5133985;27;8805;-63
2021/09/16 07:41:52;;;;;;;;;49.67;42.67;29.40;35.40;;;;;;5138264;27;8756;-62
2021/09/16 07:44:18;;;;;;;;;45.33;39.33;29.40;35.30;;;;;;5138642;27;8744;-64
2021/09/16 07:46:44;;;;;;;;;45.67;39.33;29.50;35.40;;;;;;5138544;27;8778;-64
2021/09/16 07:49:10;;;;;;;;;47.67;40.67;29.60;35.10;;;;;;5133823;27;8786;-64
2021/09/16 07:51:36;;;;;;;;;44.67;38.67;29.70;34.80;;;;;;5138302;27;8751;-63
2021/09/16 07:54:02;;;;;;;;;42.00;37.00;29.80;35.10;;;;;;5138206;27;8775;-67
2021/09/16 07:56:28;;;;;;;;;43.67;38.00;29.90;35.10;;;;;;5124181;27;8794;-66
2021/09/16 07:58:53;;;;;;;;;49.67;42.33;30.00;35.50;;;;;;5102421;27;8804;-65
2021/09/16 08:01:19;;;;;;;;;44.67;38.33;30.10;35.00;;;;;;5136101;27;8764;-66
2021/09/16 08:03:45;;;;;;;;;46.00;39.67;30.30;34.70;;;;;;5128089;27;8823;-64
2021/09/16 08:06:11;;;;;;;;;46.33;39.33;30.40;34.30;;;;;;5117641;28;8769;-69
2021/09/16 08:08:37;;;;;;;;;43.67;38.00;30.50;34.50;;;;;;5117280;28;9450;-70
2021/09/16 08:11:02;;;;;;;;;40.33;36.00;30.70;33.90;;;;;;5132812;27;8797;-70
2021/09/16 08:13:28;;;;;;;;;46.67;40.00;30.80;33.00;;;;;;5130560;27;8795;-72
2021/09/16 08:15:54;;;;;;;;;46.33;39.67;31.00;32.80;;;;;;5117234;28;9567;-70
2021/09/16 08:18:22;;;;;;;;;43.33;38.00;31.10;32.80;;;;;;5135658;27;8848;-76
2021/09/16 08:20:50;;;;;;;;;39.33;35.33;31.20;32.40;;;;;;5133715;27;8814;-68
2021/09/16 08:23:19;;;;;;;;;37.33;35.33;31.10;30.80;;;;;;5132780;27;8797;-70
2021/09/16 08:25:45;;;;;;;;;43.33;38.00;31.00;31.40;;;;;;5125860;27;8775;-73
2021/09/16 08:28:12;;;;;;;;;39.33;35.33;31.00;31.20;;;;;;5137389;27;8842;-66
2021/09/16 08:30:38;;;;;;;;;36.33;33.33;31.00;31.40;;;;;;5133090;27;8803;-69
2021/09/16 08:33:05;;;;;;;;;35.67;32.33;31.00;31.40;;;;;;5133098;27;8791;-68
2021/09/16 08:35:31;;;;;;;;;39.00;35.00;31.00;31.30;;;;;;5137908;27;8759;-70
2021/09/16 08:37:57;;;;;;;;;37.33;34.33;31.00;32.30;;;;;;5137448;27;8851;-70
2021/09/16 08:40:23;;;;;;;;;34.33;32.33;31.00;30.70;;;;;;5133037;27;9500;-69
2021/09/16 08:42:49;;;;;;;;;41.33;35.33;31.00;31.00;;;;;;5136985;27;8862;-68
2021/09/16 08:45:17;;;;;;;;;37.33;34.00;31.00;30.50;;;;;;5136354;27;8829;-67
2021/09/16 08:47:48;;;;;;;;;40.67;36.00;31.10;30.60;;;;;;5135926;27;8791;-68
2021/09/16 08:50:16;;;;;;;;;36.00;33.33;31.10;30.10;;;;;;5132568;27;8872;-64
2021/09/16 08:52:44;;;;;;;;;35.33;33.00;31.10;29.60;;;;;;5133888;27;8759;-66
2021/09/16 08:55:13;;;;;;;;;30.33;30.00;31.10;30.30;;;;;;5133207;27;8773;-64
2021/09/16 08:57:41;;;;;;;;;28.33;28.33;31.20;29.50;;;;;;5137208;27;8902;-68
2021/09/16 09:00:13;;;;;;;;;21.67;21.67;31.30;30.00;;;;;;5110189;27;8830;-64
2021/09/16 09:02:40;;;;;;;;;31.00;30.00;31.40;29.20;;;;;;5121596;27;8747;-64
2021/09/16 09:05:08;;;;;;;;;30.00;30.00;31.40;29.70;;;;;;5135292;27;8764;-64
2021/09/16 09:07:41;;;;;;;;;31.00;30.33;31.60;30.00;;;;;;5133348;27;8789;-63
2021/09/16 09:10:10;;;;;;;;;29.00;29.00;31.60;28.50;;;;;;5133104;27;8905;-65
2021/09/16 09:12:37;;;;;;;;;29.00;29.00;31.60;29.00;;;;;;5136741;27;8744;-65
2021/09/16 09:15:10;;;;;;;;;29.00;29.00;31.60;28.90;;;;;;5115902;28;8758;-65
2021/09/16 09:17:36;;;;;;;;;28.00;28.00;31.70;28.10;;;;;;5127892;27;8755;-64
2021/09/16 09:20:10;;;;;;;;;33.00;32.00;31.90;28.80;;;;;;5136165;27;11462;-64
2021/09/16 09:22:41;;;;;;;;;28.33;28.33;31.90;28.90;;;;;;5136431;27;8755;-65
2021/09/16 09:25:12;;;;;;;;;30.33;30.00;32.10;28.80;;;;;;5136543;27;8775;-64
2021/09/16 09:27:46;;;;;;;;;29.33;29.33;32.40;28.60;;;;;;5135812;27;9457;-64
2021/09/16 09:30:22;;;;;;;;;31.00;30.00;32.60;28.20;;;;;;5121628;27;8890;-64
2021/09/16 09:32:52;;;;;;;;;29.67;29.67;32.80;28.10;;;;;;5124697;27;8807;-64
2021/09/16 09:35:27;;;;;;;;;32.67;31.00;33.00;27.80;;;;;;5136136;27;8869;-64
2021/09/16 09:37:53;;;;;;;;;32.33;31.33;33.10;27.60;;;;;;5136362;27;8831;-64
2021/09/16 09:40:46;;;;;;;;;30.67;30.00;33.20;27.70;;;;;;5131432;27;8795;-64
2021/09/16 09:43:20;;;;;;;;;27.33;27.33;33.20;27.20;;;;;;5131619;27;8807;-64
2021/09/16 09:46:04;;;;;;;;;29.67;29.00;33.30;25.60;;;;;;5136051;27;11480;-64
2021/09/16 09:48:32;;;;;;;;;28.00;28.00;33.50;26.70;;;;;;5135727;27;8806;-63
2021/09/16 09:50:58;;;;;;;;;29.33;29.00;33.50;27.50;;;;;;5131206;27;11559;-65
2021/09/16 09:53:24;;;;;;;;;20.67;20.67;33.30;28.20;;;;;;5136149;27;11509;-64
2021/09/16 09:55:51;;;;;;;;;22.75;22.00;33.20;26.20;;;;;;5135647;27;8767;-65
2021/09/16 09:58:30;;;;;;;;;19.50;19.50;33.20;25.40;;;;;;5135897;27;11425;-66
2021/09/16 10:00:56;;;;;;;;;22.75;22.75;33.20;25.20;;;;;;5130335;27;11453;-66
2021/09/16 10:03:28;;;;;;;;;21.00;21.00;33.30;25.50;;;;;;5131208;27;11438;-68
2021/09/16 10:06:07;;;;;;;;;18.25;18.25;33.30;24.80;;;;;;5134701;27;8755;-66
2021/09/16 10:08:33;;;;;;;;;21.00;20.00;33.40;24.90;;;;;;5135766;27;11557;-63
2021/09/16 10:10:59;;;;;;;;;20.25;20.25;33.40;25.10;;;;;;5135231;27;11453;-64
2021/09/16 10:13:24;;;;;;;;;15.00;15.00;33.50;25.10;;;;;;5134521;27;8768;-67
2021/09/16 10:15:52;;;;;;;;;17.50;17.50;33.50;24.80;;;;;;5125681;27;8806;-67
2021/09/16 10:18:19;;;;;;;;;16.00;16.00;33.50;25.80;;;;;;5122635;27;8787;-66
2021/09/16 10:20:45;;;;;;;;;13.25;13.25;33.60;25.00;;;;;;5133832;27;11417;-66
2021/09/16 10:23:13;;;;;;;;;14.25;14.25;33.70;25.60;;;;;;5115949;27;11440;-64
2021/09/16 10:25:50;;;;;;;;;13.25;13.25;33.90;23.60;;;;;;5134589;27;12109;-69
2021/09/16 10:28:18;;;;;;;;;13.25;13.25;34.00;24.30;;;;;;5129976;27;11602;-72
2021/09/16 10:30:45;;;;;;;;;13.75;13.75;34.00;24.20;;;;;;5134163;27;11579;-65
2021/09/16 10:33:15;;;;;;;;;10.25;10.25;34.00;23.50;;;;;;5130230;27;11526;-67
2021/09/16 10:35:58;;;;;;;;;11.00;11.00;33.90;24.10;;;;;;5134017;27;8791;-67
2021/09/16 10:38:29;;;;;;;;;12.25;12.25;34.00;24.40;;;;;;5130903;27;11465;-61
2021/09/16 10:41:34;;;;;;;;;10.75;10.75;34.20;24.10;;;;;;5134469;27;12119;-62
2021/09/16 10:43:59;;;;;;;;;11.50;11.50;34.30;24.50;;;;;;5134575;27;11420;-61
2021/09/16 10:46:25;;;;;;;;;12.75;11.50;34.50;24.10;;;;;;5134872;27;11409;-61
2021/09/16 10:48:51;;;;;;;;;12.25;12.25;34.60;23.70;;;;;;5130438;27;8823;-63
2021/09/16 10:51:37;;;;;;;;;12.75;12.75;34.70;23.70;;;;;;5135238;27;8894;-62
2021/09/16 10:54:24;;;;;;;;;11.00;11.00;34.80;23.60;;;;;;5134658;27;11417;-61
2021/09/16 10:56:58;;;;;;;;;10.00;10.00;34.90;23.00;;;;;;5134817;27;12338;-62
2021/09/16 10:59:50;;;;;;;;;10.25;10.25;35.10;23.20;;;;;;5130104;27;11403;-61
2021/09/16 11:02:20;;;;;;;;;10.50;10.50;35.30;23.10;;;;;;5131819;27;11407;-62
2021/09/16 11:04:57;;;;;;;;;12.25;12.25;35.50;23.00;;;;;;5123983;28;11429;-63
2021/09/16 11:07:32;;;;;;;;;13.25;13.25;35.70;22.90;;;;;;5114225;28;11396;-61
2021/09/16 11:10:16;;;;;;;;;17.25;17.25;35.90;23.00;;;;;;5114166;28;11631;-62
2021/09/16 11:12:55;;;;;;;;;23.50;23.50;35.90;22.80;;;;;;5129102;27;11565;-62
2021/09/16 11:15:25;;;;;;;;;21.00;21.00;36.20;22.90;;;;;;5132908;27;11439;-62
2021/09/16 11:18:00;;;;;;;;;14.25;14.25;36.40;22.70;;;;;;5121130;27;11421;-63
2021/09/16 11:20:26;;;;;;;;;24.00;22.75;36.50;22.60;;;;;;5131217;27;11571;-61
2021/09/16 11:22:51;;;;;;;;;12.75;12.75;36.90;22.40;;;;;;5135362;27;11544;-62
2021/09/16 11:25:18;;;;;;;;;11.75;10.75;37.10;22.20;;;;;;5138401;27;8906;-62
2021/09/16 11:27:43;;;;;;;;;13.00;12.75;36.80;21.90;;;;;;5138858;27;8799;-63
2021/09/16 11:30:19;;;;;;;;;8.50;8.50;36.20;22.40;;;;;;5138288;27;11462;-61
2021/09/16 11:32:45;;;;;;;;;9.00;9.00;35.60;23.00;;;;;;5134087;27;8779;-63
2021/09/16 11:35:17;;;;;;;;;10.00;10.00;35.30;23.50;;;;;;5138481;27;11486;-63
2021/09/16 11:37:51;;;;;;;;;10.50;10.50;35.10;23.70;;;;;;5138755;27;11578;-61
2021/09/16 11:40:25;;;;;;;;;8.00;8.00;35.00;23.80;;;;;;5138405;27;11411;-61
2021/09/16 11:42:57;;;;;;;;;9.00;9.00;35.20;23.80;;;;;;5127593;27;11387;-62
2021/09/16 11:45:26;;;;;;;;;11.75;11.75;35.20;23.40;;;;;;5129890;27;11453;-61
2021/09/16 11:47:56;;;;;;;;;11.50;11.50;35.10;23.50;;;;;;5121090;27;11504;-61
2021/09/16 11:50:46;;;;;;;;;11.00;11.00;35.00;23.50;;;;;;5136907;27;11475;-62
2021/09/16 11:53:21;;;;;;;;;9.00;9.00;35.00;23.60;;;;;;5131952;27;11403;-63
2021/09/16 11:55:56;;;;;;;;;8.75;8.75;35.40;23.30;;;;;;5133209;27;11406;-63
2021/09/16 11:58:25;;;;;;;;;9.00;9.00;35.90;23.00;;;;;;5135229;27;11403;-64
2021/09/16 12:00:55;;;;;;;;;13.50;13.50;36.40;22.40;;;;;;5135324;27;11356;-64
2021/09/16 12:03:22;;;;;;;;;11.00;11.00;36.50;22.20;;;;;;5136440;27;11383;-64
2021/09/16 12:05:59;;;;;;;;;13.00;13.00;36.80;21.90;;;;;;5133648;27;11438;-63
2021/09/16 12:08:34;;;;;;;;;11.25;11.25;37.30;21.60;;;;;;5132385;27;11433;-63
2021/09/16 12:11:07;;;;;;;;;13.00;13.00;37.80;21.10;;;;;;5134700;27;11370;-63
2021/09/16 12:13:40;;;;;;;;;10.50;10.00;38.10;20.50;;;;;;5133785;27;11496;-63
2021/09/16 12:16:09;;;;;;;;;12.00;12.00;38.60;20.30;;;;;;5136319;27;11362;-63
2021/09/16 12:18:35;;;;;;;;;12.50;12.50;39.30;19.60;;;;;;5131782;27;11573;-63
2021/09/16 12:21:06;;;;;;;;;13.25;12.25;39.40;19.60;;;;;;5133933;27;11392;-63
2021/09/16 12:23:33;;;;;;;;;11.75;11.75;39.10;19.70;;;;;;5128133;27;12104;-63
2021/09/16 12:26:15;;;;;;;;;13.25;13.25;38.80;19.80;;;;;;5137789;27;11404;-63
2021/09/16 12:28:54;;;;;;;;;11.75;10.25;38.20;20.30;;;;;;5133103;27;11468;-64
2021/09/16 12:31:44;;;;;;;;;9.25;9.25;37.50;20.90;;;;;;5133003;27;12192;-63
2021/09/16 12:34:13;;;;;;;;;12.50;12.50;36.90;21.50;;;;;;5136258;27;11410;-63
2021/09/16 12:36:56;;;;;;;;;10.00;10.00;36.30;22.10;;;;;;5137302;27;11378;-63
2021/09/16 12:39:24;;;;;;;;;10.50;10.50;35.70;22.40;;;;;;5133362;27;11413;-63